createdAt,value
2022-11-19T00:00:50.815Z,100787.81
2022-11-19T00:03:19.661Z,100794.56
2022-11-19T00:05:48.330Z,100792.69
2022-11-19T00:08:19.706Z,100791.59
2022-11-19T00:10:46.680Z,100785.94
2022-11-19T00:13:14.816Z,100790.78
2022-11-19T00:15:41.531Z,100790.25
2022-11-19T00:18:08.367Z,100793.22
2022-11-19T00:20:35.678Z,100789.72
2022-11-19T00:23:02.329Z,100795.63
2022-11-19T00:25:30.333Z,100794.25
2022-11-19T00:27:57.613Z,100789.97
2022-11-19T00:30:47.081Z,100795.59
2022-11-19T00:33:10.502Z,100792.09
2022-11-19T00:35:36.924Z,100784.00
2022-11-19T00:38:03.382Z,100789.69
2022-11-19T00:40:29.815Z,100791.28
2022-11-19T00:43:14.835Z,100797.16
2022-11-19T00:45:44.387Z,100793.91
2022-11-19T00:48:10.943Z,100799.84
2022-11-19T00:50:37.360Z,100800.13
2022-11-19T00:53:03.794Z,100800.13
2022-11-19T00:55:30.314Z,100801.44
2022-11-19T00:57:56.681Z,100807.09
2022-11-19T01:00:23.315Z,100806.81
2022-11-19T01:02:49.692Z,100802.50
2022-11-19T01:05:16.172Z,100809.47
2022-11-19T01:07:42.608Z,100805.16
2022-11-19T01:10:09.350Z,100815.13
2022-11-19T01:12:55.704Z,100804.31
2022-11-19T01:15:22.103Z,100807.06
2022-11-19T01:17:48.589Z,100818.03
2022-11-19T01:20:15.460Z,100819.66
2022-11-19T01:22:42.167Z,100813.97
2022-11-19T01:25:09.145Z,100817.44
2022-11-19T01:27:35.589Z,100810.75
2022-11-19T01:30:02.014Z,100808.09
2022-11-19T01:32:28.444Z,100806.44
2022-11-19T01:34:54.938Z,100812.63
2022-11-19T01:37:21.321Z,100805.38
2022-11-19T01:39:47.825Z,100814.75
2022-11-19T01:42:48.025Z,100819.00
2022-11-19T01:45:35.623Z,100818.19
2022-11-19T01:48:04.902Z,100818.19
2022-11-19T01:50:34.884Z,100828.13
2022-11-19T01:53:01.752Z,100818.75
2022-11-19T01:55:28.559Z,100813.41
2022-11-19T01:58:00.115Z,100812.81
2022-11-19T02:00:27.621Z,100814.75
2022-11-19T02:02:54.316Z,100816.06
2022-11-19T02:05:21.689Z,100809.28
2022-11-19T02:07:53.872Z,100821.09
2022-11-19T02:10:28.127Z,100823.00
2022-11-19T02:13:22.451Z,100823.81
2022-11-19T02:16:05.234Z,100823.25
2022-11-19T02:18:31.585Z,100818.19
2022-11-19T02:21:06.869Z,100824.88
2022-11-19T02:23:52.037Z,100837.25
2022-11-19T02:26:33.582Z,100832.41
2022-11-19T02:29:21.995Z,100820.31
2022-11-19T02:31:56.538Z,100819.19
2022-11-19T02:34:41.329Z,100824.84
2022-11-19T02:37:19.537Z,100812.94
2022-11-19T02:39:57.817Z,100824.81
2022-11-19T02:42:30.936Z,100816.22
2022-11-19T02:45:02.881Z,100812.75
2022-11-19T02:47:38.961Z,100821.03
2022-11-19T02:50:16.543Z,100816.03
2022-11-19T02:52:45.129Z,100816.69
2022-11-19T02:55:16.795Z,100805.44
2022-11-19T02:57:48.311Z,100810.03
2022-11-19T03:00:33.288Z,100821.53
2022-11-19T03:03:23.909Z,100821.81
2022-11-19T03:05:55.765Z,100828.00
2022-11-19T03:08:22.298Z,100823.50
2022-11-19T03:11:17.649Z,100818.88
2022-11-19T03:14:40.549Z,100820.25
2022-11-19T03:17:10.972Z,100822.69
2022-11-19T03:19:40.740Z,100817.31
2022-11-19T03:22:24.583Z,100826.69
2022-11-19T03:25:03.133Z,100836.09
2022-11-19T03:27:36.411Z,100836.03
2022-11-19T03:30:04.583Z,100831.47
2022-11-19T03:32:39.411Z,100832.03
2022-11-19T03:35:11.697Z,100847.25
2022-11-19T03:37:42.381Z,100846.97
2022-11-19T03:40:11.450Z,100850.50
2022-11-19T03:42:40.871Z,100843.81
2022-11-19T03:45:15.591Z,100855.38
2022-11-19T03:47:44.857Z,100860.16
2022-11-19T03:50:39.095Z,100851.97
2022-11-19T03:53:05.520Z,100844.03
2022-11-19T03:55:45.347Z,100840.28
2022-11-19T03:58:12.113Z,100833.41
2022-11-19T04:00:38.556Z,100837.22
2022-11-19T04:03:05.111Z,100837.28
2022-11-19T04:05:31.483Z,100841.03
2022-11-19T04:07:57.838Z,100842.44
2022-11-19T04:10:24.320Z,100836.25
2022-11-19T04:12:50.735Z,100839.50
2022-11-19T04:15:17.181Z,100841.38
2022-11-19T04:17:43.670Z,100836.31
2022-11-19T04:20:10.302Z,100838.44
2022-11-19T04:22:36.723Z,100840.06
2022-11-19T04:25:03.648Z,100838.22
2022-11-19T04:27:30.024Z,100832.56
2022-11-19T04:29:56.403Z,100836.84
2022-11-19T04:32:22.942Z,100835.78
2022-11-19T04:34:49.509Z,100830.97
2022-11-19T04:37:15.867Z,100830.44
2022-11-19T04:39:42.231Z,100828.53
2022-11-19T04:42:08.704Z,100836.31
2022-11-19T04:44:35.083Z,100832.81
2022-11-19T04:47:01.549Z,100829.59
2022-11-19T04:49:27.910Z,100836.59
2022-11-19T04:51:54.355Z,100831.81
2022-11-19T04:54:20.744Z,100841.19
2022-11-19T04:56:47.120Z,100836.84
2022-11-19T04:59:13.522Z,100833.63
2022-11-19T05:01:39.939Z,100822.03
2022-11-19T05:04:06.315Z,100825.50
2022-11-19T05:06:33.422Z,100819.31
2022-11-19T05:08:59.898Z,100815.59
2022-11-19T05:11:26.395Z,100812.94
2022-11-19T05:13:52.903Z,100811.56
2022-11-19T05:16:19.279Z,100816.69
2022-11-19T05:18:45.658Z,100810.81
2022-11-19T05:21:12.237Z,100813.00
2022-11-19T05:23:38.629Z,100807.38
2022-11-19T05:26:05.189Z,100808.22
2022-11-19T05:28:39.030Z,100814.72
2022-11-19T05:31:06.863Z,100805.03
2022-11-19T05:33:34.381Z,100808.53
2022-11-19T05:36:01.513Z,100816.06
2022-11-19T05:38:27.958Z,100820.09
2022-11-19T05:40:54.514Z,100827.34
2022-11-19T05:43:20.926Z,100820.34
2022-11-19T05:45:47.373Z,100827.31
2022-11-19T05:48:13.782Z,100822.78
2022-11-19T05:50:42.385Z,100816.56
2022-11-19T05:53:09.407Z,100820.06
2022-11-19T05:55:35.775Z,100814.94
2022-11-19T05:58:02.140Z,100817.59
2022-11-19T06:00:28.569Z,100821.66
2022-11-19T06:02:54.955Z,100831.59
2022-11-19T06:05:21.397Z,100826.19
2022-11-19T06:07:47.786Z,100829.94
2022-11-19T06:10:14.244Z,100827.81
2022-11-19T06:12:45.842Z,100823.47
2022-11-19T06:15:13.094Z,100809.50
2022-11-19T06:17:39.515Z,100807.59
2022-11-19T06:20:08.733Z,100806.19
2022-11-19T06:22:35.585Z,100805.13
2022-11-19T06:25:02.327Z,100798.47
2022-11-19T06:27:28.736Z,100813.19
2022-11-19T06:29:56.434Z,100812.13
2022-11-19T06:32:23.544Z,100808.13
2022-11-19T06:34:50.051Z,100805.13
2022-11-19T06:37:16.524Z,100796.81
2022-11-19T06:39:42.918Z,100795.97
2022-11-19T06:42:27.652Z,100793.53
2022-11-19T06:44:54.024Z,100784.91
2022-11-19T06:47:20.446Z,100795.91
2022-11-19T06:49:46.834Z,100784.16
2022-11-19T06:52:13.195Z,100779.34
2022-11-19T06:54:43.120Z,100790.56
2022-11-19T06:57:10.084Z,100789.47
2022-11-19T06:59:38.784Z,100781.66
2022-11-19T07:02:05.710Z,100772.72
2022-11-19T07:04:32.242Z,100786.97
2022-11-19T07:06:59.135Z,100784.84
2022-11-19T07:09:25.641Z,100776.53
2022-11-19T07:11:52.121Z,100772.66
2022-11-19T07:14:18.479Z,100767.31
2022-11-19T07:16:45.082Z,100767.69
2022-11-19T07:19:11.585Z,100763.09
2022-11-19T07:21:38.078Z,100771.88
2022-11-19T07:24:07.221Z,100770.66
2022-11-19T07:26:34.912Z,100776.34
2022-11-19T07:29:04.970Z,100784.66
2022-11-19T07:31:31.610Z,100791.88
2022-11-19T07:33:58.036Z,100791.88
2022-11-19T07:36:24.602Z,100789.25
2022-11-19T07:38:52.242Z,100795.47
2022-11-19T07:41:38.267Z,100794.81
2022-11-19T07:44:04.995Z,100780.25
2022-11-19T07:46:31.412Z,100785.56
2022-11-19T07:48:58.259Z,100776.81
2022-11-19T07:51:25.527Z,100785.78
2022-11-19T07:53:52.389Z,100774.91
2022-11-19T07:56:19.838Z,100780.91
2022-11-19T07:58:46.448Z,100780.06
2022-11-19T08:01:17.742Z,100783.19
2022-11-19T08:03:47.205Z,100782.16
2022-11-19T08:06:16.138Z,100782.91
2022-11-19T08:08:43.167Z,100780.72
2022-11-19T08:11:11.258Z,100780.44
2022-11-19T08:13:39.650Z,100778.50
2022-11-19T08:16:09.611Z,100771.16
2022-11-19T08:18:36.437Z,100774.47
2022-11-19T08:21:09.359Z,100778.94
2022-11-19T08:23:37.651Z,100773.69
2022-11-19T08:26:06.532Z,100766.03
2022-11-19T08:28:33.719Z,100773.25
2022-11-19T08:31:07.978Z,100762.03
2022-11-19T08:33:35.233Z,100763.72
2022-11-19T08:36:02.030Z,100753.47
2022-11-19T08:38:28.435Z,100753.19
2022-11-19T08:41:15.139Z,100751.25
2022-11-19T08:43:42.186Z,100750.78
2022-11-19T08:46:09.259Z,100750.47
2022-11-19T08:48:35.666Z,100748.94
2022-11-19T08:51:06.718Z,100757.44
2022-11-19T08:53:33.395Z,100759.94
2022-11-19T08:55:59.896Z,100754.50
2022-11-19T08:58:26.349Z,100758.69
2022-11-19T09:00:53.095Z,100742.16
2022-11-19T09:03:19.491Z,100747.78
2022-11-19T09:05:45.954Z,100746.22
2022-11-19T09:08:12.394Z,100741.75
2022-11-19T09:10:38.971Z,100742.88
2022-11-19T09:13:05.866Z,100740.16
2022-11-19T09:15:32.973Z,100741.75
2022-11-19T09:17:59.413Z,100742.16
2022-11-19T09:20:25.807Z,100742.09
2022-11-19T09:22:52.363Z,100737.81
2022-11-19T09:25:18.924Z,100739.81
2022-11-19T09:27:45.408Z,100734.81
2022-11-19T09:30:12.343Z,100735.06
2022-11-19T09:32:38.805Z,100744.13
2022-11-19T09:35:05.652Z,100741.41
2022-11-19T09:37:33.992Z,100741.28
2022-11-19T09:40:00.658Z,100741.19
2022-11-19T09:42:46.362Z,100742.50
2022-11-19T09:45:24.729Z,100757.03
2022-11-19T09:48:09.835Z,100748.41
2022-11-19T09:51:02.706Z,100738.72
2022-11-19T09:53:34.403Z,100749.44
2022-11-19T09:56:00.989Z,100738.63
2022-11-19T09:58:41.867Z,100734.31
2022-11-19T10:01:17.354Z,100743.28
2022-11-19T10:03:53.261Z,100736.56
2022-11-19T10:06:24.132Z,100738.09
2022-11-19T10:09:21.284Z,100722.34
2022-11-19T10:12:06.174Z,100722.25
2022-11-19T10:15:15.325Z,100722.19
2022-11-19T10:17:47.809Z,100717.03
2022-11-19T10:20:52.938Z,100719.19
2022-11-19T10:23:30.348Z,100714.44
2022-11-19T10:26:04.998Z,100711.69
2022-11-19T10:28:37.386Z,100712.16
2022-11-19T10:31:52.976Z,100702.00
2022-11-19T10:34:26.947Z,100710.34
2022-11-19T10:36:58.670Z,100700.75
2022-11-19T10:39:32.456Z,100703.06
2022-11-19T10:42:36.815Z,100700.06
2022-11-19T10:45:14.244Z,100697.56
2022-11-19T10:48:07.455Z,100686.63
2022-11-19T10:50:35.593Z,100690.53
2022-11-19T10:53:21.082Z,100693.47
2022-11-19T10:55:54.685Z,100687.34
2022-11-19T10:58:37.195Z,100685.53
2022-11-19T11:01:12.737Z,100681.31
2022-11-19T11:03:54.664Z,100686.03
2022-11-19T11:06:21.051Z,100674.72
2022-11-19T11:08:50.085Z,100676.63
2022-11-19T11:11:21.419Z,100670.69
2022-11-19T11:14:06.404Z,100671.72
2022-11-19T11:19:33.737Z,100669.59
2022-11-19T11:22:00.174Z,100667.13
2022-11-19T11:24:37.070Z,100667.44
2022-11-19T11:27:22.172Z,100661.00
2022-11-19T11:29:48.551Z,100659.53
2022-11-19T11:32:30.618Z,100658.91
2022-11-19T11:34:58.268Z,100657.13
2022-11-19T11:37:27.834Z,100649.44
2022-11-19T11:39:56.188Z,100651.09
2022-11-19T11:42:26.374Z,100646.50
2022-11-19T11:44:56.253Z,100643.16
2022-11-19T11:47:32.027Z,100635.97
2022-11-19T11:50:25.660Z,100638.13
2022-11-19T11:52:54.647Z,100636.22
2022-11-19T11:55:23.740Z,100633.19
2022-11-19T11:58:25.025Z,100631.09
2022-11-19T12:00:55.247Z,100630.97
2022-11-19T12:03:22.397Z,100631.66
2022-11-19T12:06:06.434Z,100641.59
2022-11-19T12:09:10.522Z,100636.59
2022-11-19T12:11:55.217Z,100639.66
2022-11-19T12:14:33.936Z,100637.94
2022-11-19T12:17:19.858Z,100633.50
2022-11-19T12:20:01.147Z,100629.66
2022-11-19T12:22:36.860Z,100637.88
2022-11-19T12:25:25.894Z,100630.59
2022-11-19T12:28:21.702Z,100639.34
2022-11-19T12:31:24.255Z,100632.88
2022-11-19T12:34:05.805Z,100633.00
2022-11-19T12:37:00.885Z,100628.41
2022-11-19T12:39:42.389Z,100627.03
2022-11-19T12:42:20.846Z,100631.09
2022-11-19T12:44:54.212Z,100626.81
2022-11-19T12:47:44.912Z,100624.81
2022-11-19T12:50:34.115Z,100626.72
2022-11-19T12:53:45.245Z,100616.50
2022-11-19T12:56:39.590Z,100618.91
2022-11-19T12:59:08.868Z,100614.41
2022-11-19T13:01:42.516Z,100611.16
2022-11-19T13:04:28.090Z,100609.47
2022-11-19T13:07:10.459Z,100610.34
2022-11-19T13:10:09.313Z,100611.94
2022-11-19T13:12:41.335Z,100605.25
2022-11-19T13:15:22.314Z,100607.22
2022-11-19T13:17:53.225Z,100603.75
2022-11-19T13:20:19.573Z,100603.75
2022-11-19T13:22:49.384Z,100599.84
2022-11-19T13:25:18.762Z,100598.13
2022-11-19T13:27:48.274Z,100595.06
2022-11-19T13:30:21.107Z,100592.81
2022-11-19T13:33:26.710Z,100595.22
2022-11-19T13:36:03.493Z,100591.13
2022-11-19T13:38:43.591Z,100585.09
2022-11-19T13:41:19.427Z,100589.69
2022-11-19T13:44:04.804Z,100589.75
2022-11-19T13:46:39.856Z,100587.94
2022-11-19T13:49:31.942Z,100580.81
2022-11-19T13:52:06.223Z,100586.69
2022-11-19T13:54:38.573Z,100592.50
2022-11-19T13:57:08.280Z,100594.91
2022-11-19T13:59:36.928Z,100592.31
2022-11-19T14:02:41.452Z,100589.50
2022-11-19T14:05:35.499Z,100582.00
2022-11-19T14:08:35.572Z,100586.41
2022-11-19T14:11:17.181Z,100575.00
2022-11-19T14:14:04.882Z,100576.13
2022-11-19T14:17:14.329Z,100579.91
2022-11-19T14:20:12.590Z,100575.91
2022-11-19T14:23:14.609Z,100581.94
2022-11-19T14:26:05.083Z,100575.72
2022-11-19T14:28:41.697Z,100562.31
2022-11-19T14:31:08.318Z,100567.50
2022-11-19T14:33:46.649Z,100569.91
2022-11-19T14:36:29.491Z,100566.78
2022-11-19T14:39:00.109Z,100563.47
2022-11-19T14:41:32.801Z,100565.59
2022-11-19T14:44:31.827Z,100565.91
2022-11-19T14:47:28.662Z,100559.63
2022-11-19T14:49:58.953Z,100557.19
2022-11-19T14:52:47.419Z,100558.56
2022-11-19T14:55:13.803Z,100552.44
2022-11-19T14:57:42.512Z,100553.56
2022-11-19T15:00:15.222Z,100554.22
2022-11-19T15:02:46.867Z,100557.41
2022-11-19T15:05:13.225Z,100562.84
2022-11-19T15:07:43.336Z,100555.44
2022-11-19T15:10:09.823Z,100550.84
2022-11-19T15:12:46.309Z,100556.81
2022-11-19T15:15:24.843Z,100568.19
2022-11-19T15:18:01.911Z,100562.97
2022-11-19T15:21:05.297Z,100553.06
2022-11-19T15:24:01.599Z,100553.66
2022-11-19T15:26:45.357Z,100553.69
2022-11-19T15:29:39.952Z,100555.03
2022-11-19T15:32:12.568Z,100554.09
2022-11-19T15:35:09.685Z,100551.31
2022-11-19T15:37:45.932Z,100554.72
2022-11-19T15:40:18.444Z,100553.66
2022-11-19T15:43:21.958Z,100553.19
2022-11-19T15:45:51.342Z,100552.97
2022-11-19T15:48:34.981Z,100544.00
2022-11-19T15:51:03.155Z,100545.69
2022-11-19T15:53:29.591Z,100539.56
2022-11-19T15:56:03.830Z,100547.44
2022-11-19T15:58:41.130Z,100550.56
2022-11-19T16:01:10.570Z,100544.81
2022-11-19T16:03:39.159Z,100552.63
2022-11-19T16:06:08.360Z,100548.81
2022-11-19T16:08:35.592Z,100545.59
2022-11-19T16:11:22.176Z,100550.38
2022-11-19T16:14:13.739Z,100544.19
2022-11-19T16:16:58.801Z,100547.25
2022-11-19T16:19:25.701Z,100537.31
2022-11-19T16:21:57.343Z,100536.31
2022-11-19T16:24:44.831Z,100539.56
2022-11-19T16:27:13.149Z,100547.06
2022-11-19T16:29:42.384Z,100539.31
2022-11-19T16:32:13.011Z,100539.88
2022-11-19T16:34:40.491Z,100535.09
2022-11-19T16:37:11.853Z,100532.22
2022-11-19T16:39:38.967Z,100527.09
2022-11-19T16:42:18.433Z,100528.84
2022-11-19T16:44:47.555Z,100527.34
2022-11-19T16:47:31.015Z,100531.41
2022-11-19T16:50:06.261Z,100536.28
2022-11-19T16:52:32.664Z,100532.53
2022-11-19T16:55:00.074Z,100527.34
2022-11-19T16:57:29.356Z,100530.16
2022-11-19T17:00:01.977Z,100533.91
2022-11-19T17:02:38.133Z,100536.09
2022-11-19T17:05:09.187Z,100538.47
2022-11-19T17:07:36.515Z,100538.09
2022-11-19T17:10:31.136Z,100541.94
2022-11-19T17:13:13.418Z,100534.91
2022-11-19T17:15:42.589Z,100544.31
2022-11-19T17:18:12.064Z,100535.59
2022-11-19T17:20:38.396Z,100536.47
2022-11-19T17:23:15.398Z,100533.81
2022-11-19T17:26:06.851Z,100525.59
2022-11-19T17:28:42.087Z,100528.38
2022-11-19T17:31:18.378Z,100529.81
2022-11-19T17:33:57.621Z,100526.91
2022-11-19T17:36:27.928Z,100533.38
2022-11-19T17:38:54.723Z,100524.69
2022-11-19T17:41:47.913Z,100533.59
2022-11-19T17:44:31.700Z,100534.19
2022-11-19T17:46:58.841Z,100529.06
2022-11-19T17:49:25.311Z,100532.31
2022-11-19T17:51:52.415Z,100527.56
2022-11-19T17:54:19.542Z,100522.84
2022-11-19T17:56:46.388Z,100536.41
2022-11-19T17:59:12.863Z,100531.28
2022-11-19T18:01:39.358Z,100525.50
2022-11-19T18:04:05.824Z,100536.13
2022-11-19T18:06:33.518Z,100526.72
2022-11-19T18:08:59.934Z,100535.13
2022-11-19T18:11:26.635Z,100532.88
2022-11-19T18:13:55.383Z,100535.72
2022-11-19T18:16:24.658Z,100535.88
2022-11-19T18:18:51.501Z,100532.38
2022-11-19T18:21:20.916Z,100533.06
2022-11-19T18:23:49.465Z,100529.63
2022-11-19T18:26:18.012Z,100534.50
2022-11-19T18:28:48.812Z,100533.06
2022-11-19T18:31:27.219Z,100538.78
2022-11-19T18:33:54.532Z,100533.03
2022-11-19T18:36:21.595Z,100541.50
2022-11-19T18:38:48.532Z,100534.06
2022-11-19T18:41:16.189Z,100534.69
2022-11-19T18:44:01.343Z,100537.00
2022-11-19T18:46:27.784Z,100533.03
2022-11-19T18:48:54.186Z,100529.13
2022-11-19T18:51:23.310Z,100527.41
2022-11-19T18:53:49.735Z,100531.91
2022-11-19T18:56:17.298Z,100524.44
2022-11-19T18:58:43.735Z,100523.09
2022-11-19T19:01:11.071Z,100535.50
2022-11-19T19:03:37.555Z,100531.94
2022-11-19T19:06:07.085Z,100531.47
2022-11-19T19:08:33.912Z,100533.69
2022-11-19T19:11:18.930Z,100525.28
2022-11-19T19:13:46.169Z,100536.47
2022-11-19T19:16:13.559Z,100536.91
2022-11-19T19:18:40.065Z,100531.91
2022-11-19T19:21:32.714Z,100530.34
2022-11-19T19:23:59.116Z,100535.03
2022-11-19T19:26:25.582Z,100537.03
2022-11-19T19:28:53.963Z,100536.22
2022-11-19T19:31:22.091Z,100548.56
2022-11-19T19:33:48.909Z,100542.75
2022-11-19T19:36:16.900Z,100545.78
2022-11-19T19:38:44.013Z,100546.59
2022-11-19T19:41:14.683Z,100548.38
2022-11-19T19:43:41.125Z,100549.34
2022-11-19T19:46:10.166Z,100551.38
2022-11-19T19:48:36.695Z,100547.44
2022-11-19T19:51:03.938Z,100549.84
2022-11-19T19:53:31.083Z,100547.31
2022-11-19T19:56:27.908Z,100558.47
2022-11-19T19:58:54.664Z,100553.19
2022-11-19T20:01:39.404Z,100556.28
2022-11-19T20:04:07.480Z,100554.63
2022-11-19T20:06:35.367Z,100559.50
2022-11-19T20:09:08.116Z,100554.97
2022-11-19T20:11:36.463Z,100552.94
2022-11-19T20:14:03.206Z,100555.56
2022-11-19T20:16:31.783Z,100556.16
2022-11-19T20:18:59.766Z,100553.16
2022-11-19T20:21:33.713Z,100560.78
2022-11-19T20:24:00.301Z,100564.31
2022-11-19T20:26:29.141Z,100568.56
2022-11-19T20:28:57.150Z,100573.03
2022-11-19T20:31:24.522Z,100570.56
2022-11-19T20:33:55.172Z,100570.91
2022-11-19T20:36:24.352Z,100570.03
2022-11-19T20:38:51.583Z,100565.75
2022-11-19T20:41:38.596Z,100574.91
2022-11-19T20:44:21.257Z,100567.13
2022-11-19T20:46:59.117Z,100563.44
2022-11-19T20:49:27.652Z,100560.59
2022-11-19T20:51:55.370Z,100567.78
2022-11-19T20:54:22.719Z,100569.84
2022-11-19T20:56:51.024Z,100562.22
2022-11-19T20:59:17.645Z,100557.84
2022-11-19T21:01:44.095Z,100563.16
2022-11-19T21:04:11.776Z,100563.84
2022-11-19T21:06:38.537Z,100553.03
2022-11-19T21:09:05.195Z,100556.03
2022-11-19T21:11:33.043Z,100547.88
2022-11-19T21:14:00.099Z,100563.56
2022-11-19T21:16:28.765Z,100552.19
2022-11-19T21:18:55.699Z,100552.03
2022-11-19T21:21:23.965Z,100547.13
2022-11-19T21:23:51.567Z,100548.34
2022-11-19T21:26:20.413Z,100553.66
2022-11-19T21:28:51.473Z,100546.00
2022-11-19T21:31:21.243Z,100547.00
2022-11-19T21:33:48.108Z,100555.56
2022-11-19T21:36:14.895Z,100551.59
2022-11-19T21:38:41.310Z,100551.00
2022-11-19T21:41:07.912Z,100549.44
2022-11-19T21:43:35.207Z,100547.94
2022-11-19T21:46:01.792Z,100548.44
2022-11-19T21:48:28.241Z,100553.34
2022-11-19T21:50:54.704Z,100547.72
2022-11-19T21:53:21.477Z,100547.41
2022-11-19T21:55:49.213Z,100545.03
2022-11-19T21:58:16.449Z,100545.75
2022-11-19T22:00:43.921Z,100538.50
2022-11-19T22:03:10.414Z,100541.81
2022-11-19T22:05:36.870Z,100533.22
2022-11-19T22:08:03.459Z,100530.19
2022-11-19T22:10:29.894Z,100532.72
2022-11-19T22:12:59.354Z,100532.72
2022-11-19T22:15:27.016Z,100523.38
2022-11-19T22:17:53.740Z,100520.72
2022-11-19T22:20:20.218Z,100523.59
2022-11-19T22:22:46.800Z,100521.09
2022-11-19T22:25:14.085Z,100521.81
2022-11-19T22:27:41.690Z,100523.44
2022-11-19T22:30:10.096Z,100517.22
2022-11-19T22:32:36.943Z,100518.38
2022-11-19T22:35:03.979Z,100520.06
2022-11-19T22:37:31.284Z,100515.22
2022-11-19T22:39:57.686Z,100513.78
2022-11-19T22:42:24.378Z,100508.47
2022-11-19T22:44:51.479Z,100506.41
2022-11-19T22:47:17.903Z,100504.75
2022-11-19T22:49:44.310Z,100498.97
2022-11-19T22:52:11.148Z,100504.56
2022-11-19T22:54:41.535Z,100501.53
2022-11-19T22:57:08.662Z,100502.25
2022-11-19T22:59:35.285Z,100501.53
2022-11-19T23:02:01.805Z,100505.78
2022-11-19T23:04:28.950Z,100506.91
2022-11-19T23:06:55.549Z,100506.84
2022-11-19T23:09:22.437Z,100507.56
2022-11-19T23:12:07.664Z,100509.97
2022-11-19T23:14:34.110Z,100510.97
2022-11-19T23:17:00.745Z,100496.25
2022-11-19T23:19:27.194Z,100502.63
2022-11-19T23:21:53.797Z,100506.53
2022-11-19T23:24:20.294Z,100498.72
2022-11-19T23:26:46.783Z,100493.41
2022-11-19T23:29:13.250Z,100498.06
2022-11-19T23:31:40.474Z,100492.25
2022-11-19T23:34:07.442Z,100498.28
2022-11-19T23:36:38.833Z,100492.84
2022-11-19T23:39:09.581Z,100497.59
2022-11-19T23:41:36.066Z,100500.34
2022-11-19T23:44:02.962Z,100495.06
2022-11-19T23:46:32.309Z,100495.78
2022-11-19T23:48:59.783Z,100501.75
2022-11-19T23:51:27.455Z,100496.41
2022-11-19T23:53:54.253Z,100501.38
2022-11-19T23:56:23.245Z,100493.72
2022-11-19T23:58:50.113Z,100504.66
